FSIA/SEZ METAR and TAF weather

Enter ICAO airport designator
Station Type Date Time Source
FSIA METAR 2018/01/22 20:00 UTC NOAA

FSIA 222000Z AUTO 28006KT 9000 BKN021/// OVC050/// 26/24 Q1011 RERA


Station Type Date Time Source
FSIA Decoded METAR 2018/01/22 20:00 UTC NOAA

Seychelles Inter-National Airport, Seychelles (FSIA) 04-40S 055-31E 3M
Jan 22, 2018 - 03:00 PM EST / 2018.01.22 2000 UTC
Wind: from the W (280 degrees) at 7 MPH (6 KT):0
Visibility: 5 mile(s):0
Sky conditions: overcast
Temperature: 78 F (26 C)
Dew Point: 75 F (24 C)
Relative Humidity: 88%
Pressure (altimeter): 29.85 in. Hg (1011 hPa)
ob: FSIA 222000Z AUTO 28006KT 9000 BKN021/// OVC050/// 26/24 Q1011 RERA
cycle: 20

Station Type Date Time Source
FSIA TAF 2018/01/22 18:06 UTC NOAA

TAF FSIA 221700Z 2218/2318 32010KT 9999 SCT020 PROB40
TEMPO 2300/2306 -SHRA BKN018
BECMG 2306/2308 33015KT


Example: see airport list